sensor_id;sensor_type;location;lat;lon;timestamp;pressure;altitude;pressure_sealevel;temperature;humidity
22647;BME280;11490;42.726;23.268;2023-07-30T00:01:24;95064.09;;;21.87;74.89
22647;BME280;11490;42.726;23.268;2023-07-30T00:03:49;95064.09;;;21.87;75.05
22647;BME280;11490;42.726;23.268;2023-07-30T00:06:15;95076.16;;;21.72;75.15
22647;BME280;11490;42.726;23.268;2023-07-30T00:08:40;95064.78;;;21.70;75.51
22647;BME280;11490;42.726;23.268;2023-07-30T00:11:06;95054.94;;;21.74;74.56
22647;BME280;11490;42.726;23.268;2023-07-30T00:13:31;95059.72;;;21.77;74.90
22647;BME280;11490;42.726;23.268;2023-07-30T00:15:56;95067.00;;;21.68;75.05
22647;BME280;11490;42.726;23.268;2023-07-30T00:18:22;95070.34;;;21.65;75.27
22647;BME280;11490;42.726;23.268;2023-07-30T00:20:47;95065.19;;;21.55;75.52
22647;BME280;11490;42.726;23.268;2023-07-30T00:23:13;95069.00;;;21.54;76.00
22647;BME280;11490;42.726;23.268;2023-07-30T00:25:38;95061.50;;;21.51;76.00
22647;BME280;11490;42.726;23.268;2023-07-30T00:28:03;95053.78;;;21.44;76.26
22647;BME280;11490;42.726;23.268;2023-07-30T00:30:29;95049.63;;;21.47;75.94
22647;BME280;11490;42.726;23.268;2023-07-30T00:32:54;95048.47;;;21.39;76.12
22647;BME280;11490;42.726;23.268;2023-07-30T00:35:19;95056.31;;;21.41;76.40
22647;BME280;11490;42.726;23.268;2023-07-30T00:37:45;95048.47;;;21.39;76.25
22647;BME280;11490;42.726;23.268;2023-07-30T00:40:11;95048.31;;;21.36;76.56
22647;BME280;11490;42.726;23.268;2023-07-30T00:42:36;95045.69;;;21.31;76.53
22647;BME280;11490;42.726;23.268;2023-07-30T00:45:02;95045.34;;;21.24;76.57
22647;BME280;11490;42.726;23.268;2023-07-30T00:47:28;95053.59;;;21.19;76.99
22647;BME280;11490;42.726;23.268;2023-07-30T00:49:54;95053.47;;;21.24;76.83
22647;BME280;11490;42.726;23.268;2023-07-30T00:52:21;95060.81;;;21.23;76.74
22647;BME280;11490;42.726;23.268;2023-07-30T00:54:48;95046.16;;;21.10;77.04
22647;BME280;11490;42.726;23.268;2023-07-30T00:57:14;95051.81;;;21.00;77.86
22647;BME280;11490;42.726;23.268;2023-07-30T00:59:40;95049.03;;;21.05;78.02
22647;BME280;11490;42.726;23.268;2023-07-30T01:02:06;95057.63;;;21.07;77.76
22647;BME280;11490;42.726;23.268;2023-07-30T01:04:32;95049.63;;;21.02;77.92
22647;BME280;11490;42.726;23.268;2023-07-30T01:06:57;95053.44;;;21.01;78.26
22647;BME280;11490;42.726;23.268;2023-07-30T01:09:23;95058.84;;;21.01;77.88
22647;BME280;11490;42.726;23.268;2023-07-30T01:11:48;95051.81;;;21.00;77.51
22647;BME280;11490;42.726;23.268;2023-07-30T01:14:14;95048.63;;;20.98;77.33
22647;BME280;11490;42.726;23.268;2023-07-30T01:16:41;95059.72;;;20.88;77.94
22647;BME280;11490;42.726;23.268;2023-07-30T01:19:07;95064.25;;;20.79;77.93
22647;BME280;11490;42.726;23.268;2023-07-30T01:21:36;95058.94;;;20.74;78.30
22647;BME280;11490;42.726;23.268;2023-07-30T01:24:01;95051.53;;;20.66;78.19
22647;BME280;11490;42.726;23.268;2023-07-30T01:26:30;95055.75;;;20.72;78.41
22647;BME280;11490;42.726;23.268;2023-07-30T01:29:00;95046.94;;;20.53;78.90
22647;BME280;11490;42.726;23.268;2023-07-30T01:31:27;95054.38;;;20.47;79.12
22647;BME280;11490;42.726;23.268;2023-07-30T01:33:55;95056.66;;;20.54;78.86
22647;BME280;11490;42.726;23.268;2023-07-30T01:36:22;95053.38;;;20.57;79.09
22647;BME280;11490;42.726;23.268;2023-07-30T01:38:50;95059.69;;;20.39;80.07
22647;BME280;11490;42.726;23.268;2023-07-30T01:41:16;95065.63;;;20.41;80.11
22647;BME280;11490;42.726;23.268;2023-07-30T01:43:41;95053.34;;;20.29;80.30
22647;BME280;11490;42.726;23.268;2023-07-30T01:46:07;95068.44;;;20.35;79.84
22647;BME280;11490;42.726;23.268;2023-07-30T01:48:32;95065.22;;;20.33;79.87
22647;BME280;11490;42.726;23.268;2023-07-30T01:50:58;95061.91;;;20.36;80.22
22647;BME280;11490;42.726;23.268;2023-07-30T01:53:23;95058.59;;;20.40;80.30
22647;BME280;11490;42.726;23.268;2023-07-30T01:55:48;95067.81;;;20.39;79.65
22647;BME280;11490;42.726;23.268;2023-07-30T01:58:14;95056.81;;;20.35;79.20
22647;BME280;11490;42.726;23.268;2023-07-30T02:00:40;95069.44;;;20.40;79.68
22647;BME280;11490;42.726;23.268;2023-07-30T02:03:06;95054.16;;;20.30;79.51
22647;BME280;11490;42.726;23.268;2023-07-30T02:05:32;95071.72;;;20.32;79.52
22647;BME280;11490;42.726;23.268;2023-07-30T02:07:57;95070.03;;;20.36;79.71
22647;BME280;11490;42.726;23.268;2023-07-30T02:10:24;95064.81;;;20.26;79.90
22647;BME280;11490;42.726;23.268;2023-07-30T02:12:50;95059.69;;;20.25;79.82
22647;BME280;11490;42.726;23.268;2023-07-30T02:15:15;95061.59;;;20.24;79.62
22647;BME280;11490;42.726;23.268;2023-07-30T02:17:41;95067.59;;;20.21;79.82
22647;BME280;11490;42.726;23.268;2023-07-30T02:20:07;95063.69;;;20.14;79.95
22647;BME280;11490;42.726;23.268;2023-07-30T02:22:32;95073.63;;;20.18;79.60
22647;BME280;11490;42.726;23.268;2023-07-30T02:24:58;95071.63;;;20.10;79.82
22647;BME280;11490;42.726;23.268;2023-07-30T02:27:23;95071.22;;;20.03;80.70
22647;BME280;11490;42.726;23.268;2023-07-30T02:29:48;95074.44;;;20.05;80.66
22647;BME280;11490;42.726;23.268;2023-07-30T02:32:15;95082.66;;;20.14;80.29
22647;BME280;11490;42.726;23.268;2023-07-30T02:34:40;95068.00;;;20.01;81.32
22647;BME280;11490;42.726;23.268;2023-07-30T02:37:06;95078.25;;;20.04;80.93
22647;BME280;11490;42.726;23.268;2023-07-30T02:39:31;95078.16;;;20.09;80.54
22647;BME280;11490;42.726;23.268;2023-07-30T02:41:56;95085.47;;;20.09;80.62
22647;BME280;11490;42.726;23.268;2023-07-30T02:44:22;95082.66;;;20.14;80.50
22647;BME280;11490;42.726;23.268;2023-07-30T02:46:47;95071.00;;;20.13;80.66
22647;BME280;11490;42.726;23.268;2023-07-30T02:49:13;95083.56;;;20.09;80.54
22647;BME280;11490;42.726;23.268;2023-07-30T02:51:38;95090.06;;;20.08;80.95
22647;BME280;11490;42.726;23.268;2023-07-30T02:54:04;95086.84;;;20.06;80.87
22647;BME280;11490;42.726;23.268;2023-07-30T02:56:30;95086.38;;;20.04;80.78
22647;BME280;11490;42.726;23.268;2023-07-30T02:58:58;95080.75;;;20.01;80.87
22647;BME280;11490;42.726;23.268;2023-07-30T03:01:23;95078.84;;;19.87;81.37
22647;BME280;11490;42.726;23.268;2023-07-30T03:03:49;95071.78;;;19.73;82.27
22647;BME280;11490;42.726;23.268;2023-07-30T03:06:14;95071.81;;;19.86;81.65
22647;BME280;11490;42.726;23.268;2023-07-30T03:08:44;95080.91;;;19.90;81.05
22647;BME280;11490;42.726;23.268;2023-07-30T03:11:10;95084.84;;;19.98;81.01
22647;BME280;11490;42.726;23.268;2023-07-30T03:13:35;95081.03;;;19.99;80.91
22647;BME280;11490;42.726;23.268;2023-07-30T03:16:01;95084.25;;;20.01;80.85
22647;BME280;11490;42.726;23.268;2023-07-30T03:18:26;95083.25;;;19.97;81.08
22647;BME280;11490;42.726;23.268;2023-07-30T03:20:57;95083.44;;;20.01;81.31
22647;BME280;11490;42.726;23.268;2023-07-30T03:23:23;95090.75;;;20.00;81.18
22647;BME280;11490;42.726;23.268;2023-07-30T03:25:48;95088.16;;;19.95;81.70
22647;BME280;11490;42.726;23.268;2023-07-30T03:28:13;95077.63;;;19.93;81.28
22647;BME280;11490;42.726;23.268;2023-07-30T03:30:39;95084.84;;;19.98;81.08
22647;BME280;11490;42.726;23.268;2023-07-30T03:33:04;95075.22;;;19.92;81.24
22647;BME280;11490;42.726;23.268;2023-07-30T03:35:30;95087.06;;;19.96;81.72
22647;BME280;11490;42.726;23.268;2023-07-30T03:37:55;95084.94;;;19.93;82.23
22647;BME280;11490;42.726;23.268;2023-07-30T03:40:20;95084.81;;;19.71;82.69
22647;BME280;11490;42.726;23.268;2023-07-30T03:42:46;95091.66;;;19.82;82.47
22647;BME280;11490;42.726;23.268;2023-07-30T03:45:11;95077.81;;;19.83;81.89
22647;BME280;11490;42.726;23.268;2023-07-30T03:47:37;95088.63;;;19.83;82.80
22647;BME280;11490;42.726;23.268;2023-07-30T03:50:02;95096.56;;;19.80;82.11
22647;BME280;11490;42.726;23.268;2023-07-30T03:52:27;95087.28;;;19.53;83.56
22647;BME280;11490;42.726;23.268;2023-07-30T03:54:53;95103.34;;;19.45;84.18
22647;BME280;11490;42.726;23.268;2023-07-30T03:57:18;95102.75;;;19.67;82.82
22647;BME280;11490;42.726;23.268;2023-07-30T03:59:44;95100.06;;;19.80;82.52
22647;BME280;11490;42.726;23.268;2023-07-30T04:02:09;95105.88;;;19.74;83.17
22647;BME280;11490;42.726;23.268;2023-07-30T04:04:35;95099.28;;;19.80;82.68
22647;BME280;11490;42.726;23.268;2023-07-30T04:07:00;95107.03;;;19.68;82.09
22647;BME280;11490;42.726;23.268;2023-07-30T04:09:26;95109.06;;;19.76;81.40
22647;BME280;11490;42.726;23.268;2023-07-30T04:11:51;95116.72;;;19.74;81.53
22647;BME280;11490;42.726;23.268;2023-07-30T04:14:17;95113.47;;;19.58;82.31
22647;BME280;11490;42.726;23.268;2023-07-30T04:16:42;95116.16;;;19.39;82.94
22647;BME280;11490;42.726;23.268;2023-07-30T04:19:12;95115.69;;;19.70;82.33
22647;BME280;11490;42.726;23.268;2023-07-30T04:21:37;95109.47;;;19.83;81.11
22647;BME280;11490;42.726;23.268;2023-07-30T04:24:02;95107.13;;;19.95;80.38
22647;BME280;11490;42.726;23.268;2023-07-30T04:26:28;95114.31;;;19.99;80.44
22647;BME280;11490;42.726;23.268;2023-07-30T04:28:53;95120.78;;;20.04;79.93
22647;BME280;11490;42.726;23.268;2023-07-30T04:31:19;95117.72;;;19.91;79.88
22647;BME280;11490;42.726;23.268;2023-07-30T04:33:44;95099.06;;;19.90;80.49
22647;BME280;11490;42.726;23.268;2023-07-30T04:36:09;95115.66;;;20.02;80.04
22647;BME280;11490;42.726;23.268;2023-07-30T04:38:35;95113.03;;;19.97;79.82
22647;BME280;11490;42.726;23.268;2023-07-30T04:41:01;95122.16;;;20.01;80.39
22647;BME280;11490;42.726;23.268;2023-07-30T04:43:27;95118.53;;;20.06;80.36
22647;BME280;11490;42.726;23.268;2023-07-30T04:45:52;95118.53;;;20.06;80.45
22647;BME280;11490;42.726;23.268;2023-07-30T04:48:17;95118.75;;;20.09;80.72
22647;BME280;11490;42.726;23.268;2023-07-30T04:50:43;95125.78;;;20.10;80.83
22647;BME280;11490;42.726;23.268;2023-07-30T04:53:08;95136.44;;;20.20;80.81
22647;BME280;11490;42.726;23.268;2023-07-30T04:55:34;95126.19;;;20.17;79.86
22647;BME280;11490;42.726;23.268;2023-07-30T04:57:59;95116.97;;;20.18;80.28
22647;BME280;11490;42.726;23.268;2023-07-30T05:00:25;95123.78;;;20.29;79.52
22647;BME280;11490;42.726;23.268;2023-07-30T05:02:50;95120.41;;;20.38;79.83
22647;BME280;11490;42.726;23.268;2023-07-30T05:05:15;95121.31;;;20.47;79.98
22647;BME280;11490;42.726;23.268;2023-07-30T05:07:41;95119.09;;;20.49;79.39
22647;BME280;11490;42.726;23.268;2023-07-30T05:10:07;95119.22;;;20.44;80.15
22647;BME280;11490;42.726;23.268;2023-07-30T05:12:35;95130.44;;;20.51;79.37
22647;BME280;11490;42.726;23.268;2023-07-30T05:15:00;95112.78;;;20.67;78.57
22647;BME280;11490;42.726;23.268;2023-07-30T05:17:26;95121.69;;;20.81;78.65
22647;BME280;11490;42.726;23.268;2023-07-30T05:19:51;95119.75;;;20.95;77.82
22647;BME280;11490;42.726;23.268;2023-07-30T05:22:16;95122.97;;;20.97;77.79
22647;BME280;11490;42.726;23.268;2023-07-30T05:24:42;95116.91;;;21.00;77.33
22647;BME280;11490;42.726;23.268;2023-07-30T05:27:07;95118.31;;;21.11;76.50
22647;BME280;11490;42.726;23.268;2023-07-30T05:29:33;95120.63;;;21.18;75.96
22647;BME280;11490;42.726;23.268;2023-07-30T05:31:58;95119.22;;;21.21;75.70
22647;BME280;11490;42.726;23.268;2023-07-30T05:34:23;95107.72;;;20.88;75.27
22647;BME280;11490;42.726;23.268;2023-07-30T05:36:49;95121.78;;;20.90;76.07
22647;BME280;11490;42.726;23.268;2023-07-30T05:39:14;95115.09;;;21.09;75.00
22647;BME280;11490;42.726;23.268;2023-07-30T05:41:40;95125.13;;;21.45;74.92
22647;BME280;11490;42.726;23.268;2023-07-30T05:44:05;95116.38;;;21.48;74.75
22647;BME280;11490;42.726;23.268;2023-07-30T05:46:30;95127.84;;;21.45;75.20
22647;BME280;11490;42.726;23.268;2023-07-30T05:48:56;95128.66;;;21.09;74.02
22647;BME280;11490;42.726;23.268;2023-07-30T05:51:21;95131.56;;;21.49;75.27
22647;BME280;11490;42.726;23.268;2023-07-30T05:53:46;95124.41;;;21.75;74.95
22647;BME280;11490;42.726;23.268;2023-07-30T05:56:12;95140.56;;;22.03;73.07
22647;BME280;11490;42.726;23.268;2023-07-30T05:58:39;95125.94;;;21.90;72.21
22647;BME280;11490;42.726;23.268;2023-07-30T06:01:04;95139.19;;;22.14;72.35
22647;BME280;11490;42.726;23.268;2023-07-30T06:03:30;95136.19;;;22.24;71.54
22647;BME280;11490;42.726;23.268;2023-07-30T06:05:55;95137.19;;;22.28;70.85
22647;BME280;11490;42.726;23.268;2023-07-30T06:08:21;95143.13;;;22.08;72.11
22647;BME280;11490;42.726;23.268;2023-07-30T06:10:46;95145.03;;;22.38;72.32
22647;BME280;11490;42.726;23.268;2023-07-30T06:13:12;95130.41;;;22.56;71.67
22647;BME280;11490;42.726;23.268;2023-07-30T06:15:37;95136.81;;;22.60;71.44
22647;BME280;11490;42.726;23.268;2023-07-30T06:18:03;95109.31;;;22.62;71.42
22647;BME280;11490;42.726;23.268;2023-07-30T06:20:29;95139.34;;;22.96;70.03
22647;BME280;11490;42.726;23.268;2023-07-30T06:22:54;95125.09;;;22.91;70.63
22647;BME280;11490;42.726;23.268;2023-07-30T06:25:19;95140.81;;;23.28;68.55
22647;BME280;11490;42.726;23.268;2023-07-30T06:27:45;95137.44;;;23.40;69.97
22647;BME280;11490;42.726;23.268;2023-07-30T06:30:10;95137.97;;;23.51;69.69
22647;BME280;11490;42.726;23.268;2023-07-30T06:32:36;95131.53;;;23.29;68.12
22647;BME280;11490;42.726;23.268;2023-07-30T06:35:02;95124.50;;;23.46;68.02
22647;BME280;11490;42.726;23.268;2023-07-30T06:37:28;95075.81;;;23.18;67.83
22647;BME280;11490;42.726;23.268;2023-07-30T06:39:56;95115.88;;;23.61;67.90
22647;BME280;11490;42.726;23.268;2023-07-30T06:42:21;95116.13;;;23.85;67.59
22647;BME280;11490;42.726;23.268;2023-07-30T06:44:46;95109.34;;;24.08;66.73
22647;BME280;11490;42.726;23.268;2023-07-30T06:47:12;95101.94;;;24.17;65.72
22647;BME280;11490;42.726;23.268;2023-07-30T06:49:40;95084.78;;;24.17;66.13
22647;BME280;11490;42.726;23.268;2023-07-30T06:52:06;95107.00;;;24.45;64.15
22647;BME280;11490;42.726;23.268;2023-07-30T06:54:31;95098.72;;;24.33;63.55
22647;BME280;11490;42.726;23.268;2023-07-30T06:56:57;95086.41;;;24.56;64.84
22647;BME280;11490;42.726;23.268;2023-07-30T06:59:22;95101.56;;;24.45;62.94
22647;BME280;11490;42.726;23.268;2023-07-30T07:01:47;95083.16;;;24.33;63.82
22647;BME280;11490;42.726;23.268;2023-07-30T07:04:13;95080.75;;;24.70;62.00
22647;BME280;11490;42.726;23.268;2023-07-30T07:06:39;95095.91;;;24.79;61.37
22647;BME280;11490;42.726;23.268;2023-07-30T07:09:04;95090.72;;;24.86;62.02
22647;BME280;11490;42.726;23.268;2023-07-30T07:11:29;95092.78;;;25.19;62.74
22647;BME280;11490;42.726;23.268;2023-07-30T07:13:55;95089.56;;;25.17;60.00
22647;BME280;11490;42.726;23.268;2023-07-30T07:16:20;95080.66;;;25.49;59.09
22647;BME280;11490;42.726;23.268;2023-07-30T07:18:46;95085.50;;;25.64;59.34
22647;BME280;11490;42.726;23.268;2023-07-30T07:21:14;95070.41;;;25.79;58.39
22647;BME280;11490;42.726;23.268;2023-07-30T07:23:39;95080.59;;;25.91;57.78
22647;BME280;11490;42.726;23.268;2023-07-30T07:26:05;95079.38;;;26.00;55.65
22647;BME280;11490;42.726;23.268;2023-07-30T07:28:32;95061.13;;;25.92;54.83
22647;BME280;11490;42.726;23.268;2023-07-30T07:30:57;95067.19;;;26.10;55.73
22647;BME280;11490;42.726;23.268;2023-07-30T07:33:32;95043.50;;;25.36;55.90
22647;BME280;11490;42.726;23.268;2023-07-30T07:36:07;95063.47;;;25.70;55.86
22647;BME280;11490;42.726;23.268;2023-07-30T07:38:33;95045.44;;;26.01;55.97
22647;BME280;11490;42.726;23.268;2023-07-30T07:41:00;95058.34;;;26.50;54.71
22647;BME280;11490;42.726;23.268;2023-07-30T07:43:26;95067.25;;;26.83;54.30
22647;BME280;11490;42.726;23.268;2023-07-30T07:45:52;95068.16;;;26.99;53.26
22647;BME280;11490;42.726;23.268;2023-07-30T07:48:18;95044.41;;;27.03;51.98
22647;BME280;11490;42.726;23.268;2023-07-30T07:50:45;95058.09;;;27.15;51.79
22647;BME280;11490;42.726;23.268;2023-07-30T07:53:10;95057.56;;;27.38;53.65
22647;BME280;11490;42.726;23.268;2023-07-30T07:55:36;95046.34;;;27.55;53.03
22647;BME280;11490;42.726;23.268;2023-07-30T07:58:01;95058.22;;;27.75;50.29
22647;BME280;11490;42.726;23.268;2023-07-30T08:00:26;95038.50;;;27.69;50.73
22647;BME280;11490;42.726;23.268;2023-07-30T08:02:52;95042.66;;;27.51;48.75
22647;BME280;11490;42.726;23.268;2023-07-30T08:05:17;95042.19;;;27.61;49.48
22647;BME280;11490;42.726;23.268;2023-07-30T08:07:46;95043.59;;;27.99;49.81
22647;BME280;11490;42.726;23.268;2023-07-30T08:10:11;95038.91;;;28.15;46.12
22647;BME280;11490;42.726;23.268;2023-07-30T08:12:37;95037.44;;;28.49;46.03
22647;BME280;11490;42.726;23.268;2023-07-30T08:15:02;95031.97;;;28.49;46.19
22647;BME280;11490;42.726;23.268;2023-07-30T08:17:28;95039.00;;;28.81;45.25
22647;BME280;11490;42.726;23.268;2023-07-30T08:19:54;95031.22;;;28.83;47.19
22647;BME280;11490;42.726;23.268;2023-07-30T08:22:19;95033.72;;;29.07;47.25
22647;BME280;11490;42.726;23.268;2023-07-30T08:24:45;95028.91;;;28.85;44.87
22647;BME280;11490;42.726;23.268;2023-07-30T08:27:10;95034.06;;;29.06;44.49
22647;BME280;11490;42.726;23.268;2023-07-30T08:29:36;95015.72;;;29.29;44.22
22647;BME280;11490;42.726;23.268;2023-07-30T08:32:01;95035.41;;;29.70;45.93
22647;BME280;11490;42.726;23.268;2023-07-30T08:34:26;95033.06;;;29.91;44.08
22647;BME280;11490;42.726;23.268;2023-07-30T08:36:52;95003.25;;;29.74;44.50
22647;BME280;11490;42.726;23.268;2023-07-30T08:39:17;95020.44;;;30.09;42.85
22647;BME280;11490;42.726;23.268;2023-07-30T08:41:43;95016.47;;;30.07;42.24
22647;BME280;11490;42.726;23.268;2023-07-30T08:44:09;95014.94;;;30.09;43.57
22647;BME280;11490;42.726;23.268;2023-07-30T08:46:35;95001.56;;;30.08;41.18
22647;BME280;11490;42.726;23.268;2023-07-30T08:49:00;94993.06;;;30.16;41.65
22647;BME280;11490;42.726;23.268;2023-07-30T08:51:27;94994.91;;;29.90;42.17
22647;BME280;11490;42.726;23.268;2023-07-30T08:53:54;95018.06;;;30.31;40.25
22647;BME280;11490;42.726;23.268;2023-07-30T08:56:22;95011.75;;;30.53;39.30
22647;BME280;11490;42.726;23.268;2023-07-30T08:58:48;94998.34;;;30.51;40.74
22647;BME280;11490;42.726;23.268;2023-07-30T09:01:17;95001.59;;;30.83;39.18
22647;BME280;11490;42.726;23.268;2023-07-30T09:03:44;94984.94;;;31.03;38.47
22647;BME280;11490;42.726;23.268;2023-07-30T09:06:09;94995.25;;;30.53;41.59
22647;BME280;11490;42.726;23.268;2023-07-30T09:08:35;94998.41;;;31.08;39.00
22647;BME280;11490;42.726;23.268;2023-07-30T09:11:10;94984.19;;;31.06;39.29
22647;BME280;11490;42.726;23.268;2023-07-30T09:13:37;94988.97;;;30.82;38.45
22647;BME280;11490;42.726;23.268;2023-07-30T09:16:08;94986.97;;;30.53;39.95
22647;BME280;11490;42.726;23.268;2023-07-30T09:18:42;95002.75;;;30.82;38.86
22647;BME280;11490;42.726;23.268;2023-07-30T09:21:13;94983.13;;;31.14;39.86
22647;BME280;11490;42.726;23.268;2023-07-30T09:23:40;94998.28;;;31.01;37.58
22647;BME280;11490;42.726;23.268;2023-07-30T09:26:06;94987.28;;;31.01;37.67
22647;BME280;11490;42.726;23.268;2023-07-30T09:28:32;94988.19;;;31.71;37.84
22647;BME280;11490;42.726;23.268;2023-07-30T09:31:05;94988.13;;;31.68;35.39
22647;BME280;11490;42.726;23.268;2023-07-30T09:33:32;94972.81;;;31.70;36.34
22647;BME280;11490;42.726;23.268;2023-07-30T09:36:00;94967.09;;;31.90;36.63
22647;BME280;11490;42.726;23.268;2023-07-30T09:38:26;94980.88;;;32.27;34.60
22647;BME280;11490;42.726;23.268;2023-07-30T09:41:00;94982.28;;;32.13;34.60
22647;BME280;11490;42.726;23.268;2023-07-30T09:43:28;94950.16;;;31.54;35.18
22647;BME280;11490;42.726;23.268;2023-07-30T09:46:01;94973.44;;;32.38;34.91
22647;BME280;11490;42.726;23.268;2023-07-30T09:48:27;94969.88;;;32.37;34.26
22647;BME280;11490;42.726;23.268;2023-07-30T09:50:53;94953.50;;;32.59;34.62
22647;BME280;11490;42.726;23.268;2023-07-30T09:53:20;94948.06;;;32.18;31.98
22647;BME280;11490;42.726;23.268;2023-07-30T09:55:45;94949.03;;;31.96;34.04
22647;BME280;11490;42.726;23.268;2023-07-30T09:58:11;94954.81;;;32.24;34.57
22647;BME280;11490;42.726;23.268;2023-07-30T10:00:37;94951.81;;;32.43;34.09
22647;BME280;11490;42.726;23.268;2023-07-30T10:03:04;94945.53;;;32.54;33.55
22647;BME280;11490;42.726;23.268;2023-07-30T10:05:32;94935.44;;;32.72;33.26
22647;BME280;11490;42.726;23.268;2023-07-30T10:08:11;94946.00;;;32.63;33.64
22647;BME280;11490;42.726;23.268;2023-07-30T10:10:39;94919.19;;;32.63;33.68
22647;BME280;11490;42.726;23.268;2023-07-30T10:13:08;94924.44;;;32.79;31.63
22647;BME280;11490;42.726;23.268;2023-07-30T10:15:37;94935.13;;;32.29;32.07
22647;BME280;11490;42.726;23.268;2023-07-30T10:18:04;94918.00;;;32.64;33.07
22647;BME280;11490;42.726;23.268;2023-07-30T10:20:31;94928.41;;;32.27;32.17
22647;BME280;11490;42.726;23.268;2023-07-30T10:22:58;94916.28;;;32.42;31.78
22647;BME280;11490;42.726;23.268;2023-07-30T10:28:34;94906.94;;;32.61;32.12
22647;BME280;11490;42.726;23.268;2023-07-30T10:31:05;94920.34;;;32.59;32.56
22647;BME280;11490;42.726;23.268;2023-07-30T10:34:09;94912.72;;;33.03;32.41
22647;BME280;11490;42.726;23.268;2023-07-30T10:36:47;94886.69;;;33.11;33.10
22647;BME280;11490;42.726;23.268;2023-07-30T10:39:18;94897.75;;;33.11;31.53
22647;BME280;11490;42.726;23.268;2023-07-30T10:41:50;94897.72;;;33.04;32.55
22647;BME280;11490;42.726;23.268;2023-07-30T10:44:33;94896.88;;;32.93;31.91
22647;BME280;11490;42.726;23.268;2023-07-30T10:47:00;94896.16;;;33.10;32.45
22647;BME280;11490;42.726;23.268;2023-07-30T10:49:26;94882.28;;;32.31;31.16
22647;BME280;11490;42.726;23.268;2023-07-30T10:51:56;94887.78;;;32.89;33.22
22647;BME280;11490;42.726;23.268;2023-07-30T10:54:22;94883.38;;;32.74;30.90
22647;BME280;11490;42.726;23.268;2023-07-30T10:56:48;94882.63;;;32.91;31.47
22647;BME280;11490;42.726;23.268;2023-07-30T10:59:14;94866.25;;;33.41;31.30
22647;BME280;11490;42.726;23.268;2023-07-30T11:01:44;94866.63;;;33.29;31.88
22647;BME280;11490;42.726;23.268;2023-07-30T11:04:18;94862.25;;;33.24;32.20
22647;BME280;11490;42.726;23.268;2023-07-30T11:06:48;94856.78;;;33.42;31.81
22647;BME280;11490;42.726;23.268;2023-07-30T11:09:24;94866.94;;;33.16;31.70
22647;BME280;11490;42.726;23.268;2023-07-30T11:11:54;94858.38;;;33.50;31.21
22647;BME280;11490;42.726;23.268;2023-07-30T11:14:22;94835.47;;;33.67;31.98
22647;BME280;11490;42.726;23.268;2023-07-30T11:16:53;94828.38;;;33.84;30.56
22647;BME280;11490;42.726;23.268;2023-07-30T11:19:19;94818.91;;;33.74;30.71
22647;BME280;11490;42.726;23.268;2023-07-30T11:21:52;94818.09;;;33.84;30.96
22647;BME280;11490;42.726;23.268;2023-07-30T11:24:19;94825.97;;;33.43;30.85
22647;BME280;11490;42.726;23.268;2023-07-30T11:26:45;94831.91;;;33.49;30.72
22647;BME280;11490;42.726;23.268;2023-07-30T11:29:21;94814.09;;;33.39;31.10
22647;BME280;11490;42.726;23.268;2023-07-30T11:31:47;94833.13;;;33.76;30.10
22647;BME280;11490;42.726;23.268;2023-07-30T11:34:15;94827.53;;;33.55;30.25
22647;BME280;11490;42.726;23.268;2023-07-30T11:36:42;94816.53;;;33.73;29.88
22647;BME280;11490;42.726;23.268;2023-07-30T11:39:08;94820.84;;;33.70;29.56
22647;BME280;11490;42.726;23.268;2023-07-30T11:41:35;94822.06;;;33.83;31.16
22647;BME280;11490;42.726;23.268;2023-07-30T11:44:01;94800.69;;;33.62;29.98
22647;BME280;11490;42.726;23.268;2023-07-30T11:46:26;94807.72;;;33.10;29.84
22647;BME280;11490;42.726;23.268;2023-07-30T11:48:53;94806.22;;;33.52;30.77
22647;BME280;11490;42.726;23.268;2023-07-30T11:51:35;94800.56;;;33.02;30.38
22647;BME280;11490;42.726;23.268;2023-07-30T11:54:01;94799.47;;;33.28;32.40
22647;BME280;11490;42.726;23.268;2023-07-30T11:56:28;94793.06;;;33.03;30.53
22647;BME280;11490;42.726;23.268;2023-07-30T11:58:59;94802.19;;;33.10;30.52
22647;BME280;11490;42.726;23.268;2023-07-30T12:01:26;94774.53;;;33.03;30.09
22647;BME280;11490;42.726;23.268;2023-07-30T12:03:59;94769.84;;;33.21;30.60
22647;BME280;11490;42.726;23.268;2023-07-30T12:06:49;94759.53;;;32.97;30.27
22647;BME280;11490;42.726;23.268;2023-07-30T12:12:05;94757.69;;;32.32;31.23
22647;BME280;11490;42.726;23.268;2023-07-30T12:14:44;94769.78;;;32.97;31.32
22647;BME280;11490;42.726;23.268;2023-07-30T12:17:17;94748.03;;;32.81;30.96
22647;BME280;11490;42.726;23.268;2023-07-30T12:19:43;94753.16;;;32.82;30.49
22647;BME280;11490;42.726;23.268;2023-07-30T12:22:08;94759.38;;;32.62;30.90
22647;BME280;11490;42.726;23.268;2023-07-30T12:24:34;94756.31;;;32.81;30.76
22647;BME280;11490;42.726;23.268;2023-07-30T12:26:59;94737.19;;;32.33;30.68
22647;BME280;11490;42.726;23.268;2023-07-30T12:29:26;94747.50;;;32.43;30.95
22647;BME280;11490;42.726;23.268;2023-07-30T12:31:51;94723.09;;;32.60;31.60
22647;BME280;11490;42.726;23.268;2023-07-30T12:34:22;94721.59;;;32.80;31.05
22647;BME280;11490;42.726;23.268;2023-07-30T12:36:48;94740.97;;;33.01;31.23
22647;BME280;11490;42.726;23.268;2023-07-30T12:39:13;94720.00;;;32.79;30.83
22647;BME280;11490;42.726;23.268;2023-07-30T12:41:39;94727.50;;;32.82;31.44
22647;BME280;11490;42.726;23.268;2023-07-30T12:44:04;94723.00;;;32.38;30.71
22647;BME280;11490;42.726;23.268;2023-07-30T12:46:30;94724.16;;;32.30;30.69
22647;BME280;11490;42.726;23.268;2023-07-30T12:48:57;94704.44;;;32.28;31.24
22647;BME280;11490;42.726;23.268;2023-07-30T12:51:23;94725.78;;;32.45;31.75
22647;BME280;11490;42.726;23.268;2023-07-30T12:53:48;94722.19;;;32.27;31.73